sensor_id;sensor_type;location;lat;lon;timestamp;pressure;altitude;pressure_sealevel;temperature;humidity
76132;BME280;64877;50.994;13.650;2024-01-16T00:02:03;98234.72;;;1.52;86.76
76132;BME280;64877;50.994;13.650;2024-01-16T00:04:31;98244.31;;;1.55;85.99
76132;BME280;64877;50.994;13.650;2024-01-16T00:06:57;98242.59;;;1.54;85.45
76132;BME280;64877;50.994;13.650;2024-01-16T00:09:24;98244.66;;;1.63;86.38
76132;BME280;64877;50.994;13.650;2024-01-16T00:11:51;98240.69;;;1.56;85.53
76132;BME280;64877;50.994;13.650;2024-01-16T00:14:18;98241.44;;;1.58;85.04
76132;BME280;64877;50.994;13.650;2024-01-16T00:16:49;98243.72;;;1.64;85.33
76132;BME280;64877;50.994;13.650;2024-01-16T00:19:15;98261.38;;;1.65;84.80
76132;BME280;64877;50.994;13.650;2024-01-16T00:21:41;98254.75;;;1.58;86.66
76132;BME280;64877;50.994;13.650;2024-01-16T00:24:08;98262.16;;;1.53;90.24
76132;BME280;64877;50.994;13.650;2024-01-16T00:26:33;98251.44;;;1.54;93.47
76132;BME280;64877;50.994;13.650;2024-01-16T00:28:59;98264.25;;;1.48;94.38
76132;BME280;64877;50.994;13.650;2024-01-16T00:31:25;98272.53;;;1.43;95.22
76132;BME280;64877;50.994;13.650;2024-01-16T00:33:51;98267.69;;;1.50;95.61
76132;BME280;64877;50.994;13.650;2024-01-16T00:36:16;98271.78;;;1.41;97.74
76132;BME280;64877;50.994;13.650;2024-01-16T00:38:41;98265.88;;;1.50;97.87
76132;BME280;64877;50.994;13.650;2024-01-16T00:41:07;98277.94;;;1.56;97.67
76132;BME280;64877;50.994;13.650;2024-01-16T00:43:32;98278.69;;;1.44;97.11
76132;BME280;64877;50.994;13.650;2024-01-16T00:46:01;98286.47;;;1.61;96.87
76132;BME280;64877;50.994;13.650;2024-01-16T00:48:26;98278.41;;;1.48;95.97
76132;BME280;64877;50.994;13.650;2024-01-16T00:50:51;98283.56;;;1.37;96.88
76132;BME280;64877;50.994;13.650;2024-01-16T00:53:17;98288.31;;;1.32;96.61
76132;BME280;64877;50.994;13.650;2024-01-16T00:55:42;98285.53;;;1.34;96.00
76132;BME280;64877;50.994;13.650;2024-01-16T00:58:07;98287.63;;;1.28;95.98
76132;BME280;64877;50.994;13.650;2024-01-16T01:00:33;98287.34;;;1.33;95.60
76132;BME280;64877;50.994;13.650;2024-01-16T01:03:00;98299.22;;;1.27;95.14
76132;BME280;64877;50.994;13.650;2024-01-16T01:05:25;98296.38;;;1.45;94.11
76132;BME280;64877;50.994;13.650;2024-01-16T01:07:57;98302.84;;;1.41;93.63
76132;BME280;64877;50.994;13.650;2024-01-16T01:10:23;98301.50;;;1.34;93.66
76132;BME280;64877;50.994;13.650;2024-01-16T01:12:49;98314.72;;;1.49;92.74
76132;BME280;64877;50.994;13.650;2024-01-16T01:15:16;98318.63;;;1.29;93.22
76132;BME280;64877;50.994;13.650;2024-01-16T01:17:41;98320.22;;;1.46;93.65
76132;BME280;64877;50.994;13.650;2024-01-16T01:20:10;98331.44;;;1.51;93.62
76132;BME280;64877;50.994;13.650;2024-01-16T01:22:37;98323.56;;;1.36;95.90
76132;BME280;64877;50.994;13.650;2024-01-16T01:25:03;98325.06;;;1.40;97.69
76132;BME280;64877;50.994;13.650;2024-01-16T01:27:28;98320.78;;;1.51;98.83
76132;BME280;64877;50.994;13.650;2024-01-16T01:29:54;98320.13;;;1.34;99.23
76132;BME280;64877;50.994;13.650;2024-01-16T01:32:19;98325.41;;;1.19;99.20
76132;BME280;64877;50.994;13.650;2024-01-16T01:34:44;98324.69;;;1.32;98.97
76132;BME280;64877;50.994;13.650;2024-01-16T01:37:10;98343.88;;;1.37;98.86
76132;BME280;64877;50.994;13.650;2024-01-16T01:39:35;98343.09;;;1.20;99.91
76132;BME280;64877;50.994;13.650;2024-01-16T01:42:01;98334.19;;;1.21;100.00
76132;BME280;64877;50.994;13.650;2024-01-16T01:44:26;98338.84;;;1.32;100.00
76132;BME280;64877;50.994;13.650;2024-01-16T01:46:54;98340.25;;;1.23;99.55
76132;BME280;64877;50.994;13.650;2024-01-16T01:49:20;98338.44;;;1.24;99.04
76132;BME280;64877;50.994;13.650;2024-01-16T01:51:46;98339.88;;;1.29;98.61
76132;BME280;64877;50.994;13.650;2024-01-16T01:54:12;98353.16;;;1.15;97.23
76132;BME280;64877;50.994;13.650;2024-01-16T01:56:39;98346.22;;;1.27;96.48
76132;BME280;64877;50.994;13.650;2024-01-16T01:59:05;98353.16;;;1.44;95.71
76132;BME280;64877;50.994;13.650;2024-01-16T02:01:31;98346.53;;;1.37;94.89
76132;BME280;64877;50.994;13.650;2024-01-16T02:03:57;98346.41;;;1.38;93.90
76132;BME280;64877;50.994;13.650;2024-01-16T02:06:24;98351.47;;;1.43;93.11
76132;BME280;64877;50.994;13.650;2024-01-16T02:08:50;98358.59;;;1.42;91.88
76132;BME280;64877;50.994;13.650;2024-01-16T02:11:16;98372.28;;;1.50;92.31
76132;BME280;64877;50.994;13.650;2024-01-16T02:13:41;98362.59;;;1.49;91.65
76132;BME280;64877;50.994;13.650;2024-01-16T02:16:17;98366.38;;;1.45;91.64
76132;BME280;64877;50.994;13.650;2024-01-16T02:18:43;98370.84;;;1.45;93.04
76132;BME280;64877;50.994;13.650;2024-01-16T02:21:08;98377.13;;;1.29;94.19
76132;BME280;64877;50.994;13.650;2024-01-16T02:23:34;98381.09;;;1.37;94.87
76132;BME280;64877;50.994;13.650;2024-01-16T02:25:59;98401.03;;;1.44;93.60
76132;BME280;64877;50.994;13.650;2024-01-16T02:28:26;98386.69;;;1.32;95.62
76132;BME280;64877;50.994;13.650;2024-01-16T02:30:51;98398.72;;;1.23;97.85
76132;BME280;64877;50.994;13.650;2024-01-16T02:33:16;98392.66;;;1.21;99.50
76132;BME280;64877;50.994;13.650;2024-01-16T02:35:42;98391.53;;;1.25;100.00
76132;BME280;64877;50.994;13.650;2024-01-16T02:38:07;98387.38;;;1.36;100.00
76132;BME280;64877;50.994;13.650;2024-01-16T02:40:33;98376.63;;;1.23;99.52
76132;BME280;64877;50.994;13.650;2024-01-16T02:42:58;98387.44;;;1.34;98.38
76132;BME280;64877;50.994;13.650;2024-01-16T02:45:24;98395.63;;;1.31;97.29
76132;BME280;64877;50.994;13.650;2024-01-16T02:47:49;98401.63;;;1.35;94.79
76132;BME280;64877;50.994;13.650;2024-01-16T02:50:15;98416.34;;;1.40;94.36
76132;BME280;64877;50.994;13.650;2024-01-16T02:52:41;98411.22;;;1.37;94.69
76132;BME280;64877;50.994;13.650;2024-01-16T02:55:06;98415.38;;;1.27;96.84
76132;BME280;64877;50.994;13.650;2024-01-16T02:57:32;98417.00;;;1.29;98.23
76132;BME280;64877;50.994;13.650;2024-01-16T02:59:57;98414.13;;;1.33;98.18
76132;BME280;64877;50.994;13.650;2024-01-16T03:02:23;98421.91;;;1.21;98.53
76132;BME280;64877;50.994;13.650;2024-01-16T03:04:49;98419.66;;;1.29;98.20
76132;BME280;64877;50.994;13.650;2024-01-16T03:07:15;98429.16;;;1.34;97.55
76132;BME280;64877;50.994;13.650;2024-01-16T03:09:40;98434.84;;;1.27;96.50
76132;BME280;64877;50.994;13.650;2024-01-16T03:12:06;98439.50;;;1.38;95.55
76132;BME280;64877;50.994;13.650;2024-01-16T03:14:32;98440.88;;;1.45;94.24
76132;BME280;64877;50.994;13.650;2024-01-16T03:17:02;98440.19;;;1.42;93.14
76132;BME280;64877;50.994;13.650;2024-01-16T03:19:28;98435.53;;;1.45;92.34
76132;BME280;64877;50.994;13.650;2024-01-16T03:21:53;98438.66;;;1.38;92.12
76132;BME280;64877;50.994;13.650;2024-01-16T03:24:19;98439.81;;;1.48;91.04
76132;BME280;64877;50.994;13.650;2024-01-16T03:26:45;98434.31;;;1.51;89.61
76132;BME280;64877;50.994;13.650;2024-01-16T03:29:10;98439.44;;;1.54;88.24
76132;BME280;64877;50.994;13.650;2024-01-16T03:31:36;98432.69;;;1.63;88.62
76132;BME280;64877;50.994;13.650;2024-01-16T03:34:01;98440.78;;;1.61;87.38
76132;BME280;64877;50.994;13.650;2024-01-16T03:36:27;98452.97;;;1.65;87.24
76132;BME280;64877;50.994;13.650;2024-01-16T03:38:52;98447.44;;;1.68;88.52
76132;BME280;64877;50.994;13.650;2024-01-16T03:41:18;98447.81;;;1.76;87.68
76132;BME280;64877;50.994;13.650;2024-01-16T03:43:43;98456.09;;;1.86;87.66
76132;BME280;64877;50.994;13.650;2024-01-16T03:46:12;98452.41;;;1.74;87.24
76132;BME280;64877;50.994;13.650;2024-01-16T03:48:38;98453.59;;;1.69;87.46
76132;BME280;64877;50.994;13.650;2024-01-16T03:51:04;98449.53;;;1.63;86.90
76132;BME280;64877;50.994;13.650;2024-01-16T03:53:30;98457.72;;;1.74;87.51
76132;BME280;64877;50.994;13.650;2024-01-16T03:55:56;98456.19;;;1.70;87.81
76132;BME280;64877;50.994;13.650;2024-01-16T03:58:21;98466.34;;;1.64;86.44
76132;BME280;64877;50.994;13.650;2024-01-16T04:00:48;98461.78;;;1.66;86.27
76132;BME280;64877;50.994;13.650;2024-01-16T04:03:16;98454.50;;;1.69;86.29
76132;BME280;64877;50.994;13.650;2024-01-16T04:05:42;98451.91;;;1.68;86.01
76132;BME280;64877;50.994;13.650;2024-01-16T04:08:07;98466.25;;;1.65;85.75
76132;BME280;64877;50.994;13.650;2024-01-16T04:10:32;98464.75;;;1.75;85.35
76132;BME280;64877;50.994;13.650;2024-01-16T04:13:00;98475.94;;;1.66;84.94
76132;BME280;64877;50.994;13.650;2024-01-16T04:15:26;98467.56;;;1.58;84.21
76132;BME280;64877;50.994;13.650;2024-01-16T04:17:52;98483.81;;;1.53;86.52
76132;BME280;64877;50.994;13.650;2024-01-16T04:20:17;98491.72;;;1.55;87.24
76132;BME280;64877;50.994;13.650;2024-01-16T04:22:43;98491.31;;;1.47;89.87
76132;BME280;64877;50.994;13.650;2024-01-16T04:25:08;98490.94;;;1.53;91.27
76132;BME280;64877;50.994;13.650;2024-01-16T04:27:34;98495.03;;;1.44;93.08
76132;BME280;64877;50.994;13.650;2024-01-16T04:30:00;98509.25;;;1.43;94.00
76132;BME280;64877;50.994;13.650;2024-01-16T04:32:25;98495.63;;;1.34;95.86
76132;BME280;64877;50.994;13.650;2024-01-16T04:34:51;98502.25;;;1.26;97.41
76132;BME280;64877;50.994;13.650;2024-01-16T04:37:16;98509.13;;;1.31;97.25
76132;BME280;64877;50.994;13.650;2024-01-16T04:39:41;98505.03;;;1.39;96.85
76132;BME280;64877;50.994;13.650;2024-01-16T04:42:07;98512.25;;;1.37;95.96
76132;BME280;64877;50.994;13.650;2024-01-16T04:44:32;98500.28;;;1.30;94.25
76132;BME280;64877;50.994;13.650;2024-01-16T04:46:58;98515.03;;;1.36;93.41
76132;BME280;64877;50.994;13.650;2024-01-16T04:49:23;98519.38;;;1.37;92.92
76132;BME280;64877;50.994;13.650;2024-01-16T04:51:49;98522.06;;;1.37;93.42
76132;BME280;64877;50.994;13.650;2024-01-16T04:54:14;98526.53;;;1.36;94.31
76132;BME280;64877;50.994;13.650;2024-01-16T04:56:40;98533.41;;;1.24;95.90
76132;BME280;64877;50.994;13.650;2024-01-16T04:59:05;98525.25;;;1.27;95.41
76132;BME280;64877;50.994;13.650;2024-01-16T05:01:30;98531.25;;;1.31;94.53
76132;BME280;64877;50.994;13.650;2024-01-16T05:03:56;98527.53;;;1.34;92.96
76132;BME280;64877;50.994;13.650;2024-01-16T05:06:21;98529.28;;;1.35;92.08
76132;BME280;64877;50.994;13.650;2024-01-16T05:08:47;98531.06;;;1.34;88.83
76132;BME280;64877;50.994;13.650;2024-01-16T05:11:12;98533.00;;;1.46;87.79
76132;BME280;64877;50.994;13.650;2024-01-16T05:13:38;98530.06;;;1.51;87.20
76132;BME280;64877;50.994;13.650;2024-01-16T05:16:03;98533.13;;;1.59;85.61
76132;BME280;64877;50.994;13.650;2024-01-16T05:18:29;98531.09;;;1.48;84.84
76132;BME280;64877;50.994;13.650;2024-01-16T05:20:54;98531.94;;;1.49;84.17
76132;BME280;64877;50.994;13.650;2024-01-16T05:23:21;98536.53;;;1.47;82.80
76132;BME280;64877;50.994;13.650;2024-01-16T05:25:47;98542.25;;;1.55;83.17
76132;BME280;64877;50.994;13.650;2024-01-16T05:28:12;98550.56;;;1.49;83.42
76132;BME280;64877;50.994;13.650;2024-01-16T05:30:38;98554.59;;;1.56;82.75
76132;BME280;64877;50.994;13.650;2024-01-16T05:33:03;98549.56;;;1.51;82.35
76132;BME280;64877;50.994;13.650;2024-01-16T05:35:28;98554.78;;;1.53;82.52
76132;BME280;64877;50.994;13.650;2024-01-16T05:37:55;98551.13;;;1.40;82.32
76132;BME280;64877;50.994;13.650;2024-01-16T05:40:21;98546.00;;;1.37;83.01
76132;BME280;64877;50.994;13.650;2024-01-16T05:42:48;98558.75;;;1.46;83.68
76132;BME280;64877;50.994;13.650;2024-01-16T05:45:15;98545.25;;;1.49;83.67
76132;BME280;64877;50.994;13.650;2024-01-16T05:47:41;98545.44;;;1.76;85.42
76132;BME280;64877;50.994;13.650;2024-01-16T05:50:07;98556.84;;;1.48;83.40
76132;BME280;64877;50.994;13.650;2024-01-16T05:52:32;98553.59;;;1.43;84.95
76132;BME280;64877;50.994;13.650;2024-01-16T05:54:58;98563.81;;;1.50;85.79
76132;BME280;64877;50.994;13.650;2024-01-16T05:57:25;98562.09;;;1.49;84.92
76132;BME280;64877;50.994;13.650;2024-01-16T05:59:51;98560.28;;;1.50;84.69
76132;BME280;64877;50.994;13.650;2024-01-16T06:02:16;98575.41;;;1.34;85.63
76132;BME280;64877;50.994;13.650;2024-01-16T06:04:41;98577.16;;;1.35;88.18
76132;BME280;64877;50.994;13.650;2024-01-16T06:07:07;98587.25;;;1.28;90.92
76132;BME280;64877;50.994;13.650;2024-01-16T06:09:33;98588.81;;;1.32;91.40
76132;BME280;64877;50.994;13.650;2024-01-16T06:11:59;98583.84;;;1.26;93.78
76132;BME280;64877;50.994;13.650;2024-01-16T06:14:24;98585.13;;;1.19;95.21
76132;BME280;64877;50.994;13.650;2024-01-16T06:16:50;98586.41;;;1.27;95.00
76132;BME280;64877;50.994;13.650;2024-01-16T06:19:16;98590.38;;;1.20;95.25
76132;BME280;64877;50.994;13.650;2024-01-16T06:21:42;98596.69;;;1.18;95.46
76132;BME280;64877;50.994;13.650;2024-01-16T06:24:08;98592.84;;;1.23;93.53
76132;BME280;64877;50.994;13.650;2024-01-16T06:26:33;98593.94;;;1.19;92.71
76132;BME280;64877;50.994;13.650;2024-01-16T06:28:58;98603.22;;;1.12;91.46
76132;BME280;64877;50.994;13.650;2024-01-16T06:31:24;98602.38;;;1.12;90.56
76132;BME280;64877;50.994;13.650;2024-01-16T06:33:51;98609.00;;;1.05;91.14
76132;BME280;64877;50.994;13.650;2024-01-16T06:36:17;98602.97;;;1.01;93.56
76132;BME280;64877;50.994;13.650;2024-01-16T06:38:42;98603.69;;;1.05;93.31
76132;BME280;64877;50.994;13.650;2024-01-16T06:41:08;98613.09;;;1.10;92.50
76132;BME280;64877;50.994;13.650;2024-01-16T06:43:35;98616.38;;;1.15;90.78
76132;BME280;64877;50.994;13.650;2024-01-16T06:46:00;98617.38;;;1.13;91.52
76132;BME280;64877;50.994;13.650;2024-01-16T06:48:26;98618.06;;;1.78;100.00
76132;BME280;64877;50.994;13.650;2024-01-16T06:50:52;98613.72;;;1.91;97.08
76132;BME280;64877;50.994;13.650;2024-01-16T06:53:18;98613.94;;;1.72;90.71
76132;BME280;64877;50.994;13.650;2024-01-16T06:55:45;98626.97;;;1.47;89.27
76132;BME280;64877;50.994;13.650;2024-01-16T06:58:11;98637.16;;;1.39;89.07
76132;BME280;64877;50.994;13.650;2024-01-16T07:00:38;98638.72;;;1.43;88.67
76132;BME280;64877;50.994;13.650;2024-01-16T07:03:05;98643.19;;;1.42;86.35
76132;BME280;64877;50.994;13.650;2024-01-16T07:05:32;98642.56;;;1.53;87.73
76132;BME280;64877;50.994;13.650;2024-01-16T07:07:57;98653.22;;;1.37;85.20
76132;BME280;64877;50.994;13.650;2024-01-16T07:10:24;98655.53;;;1.43;85.14
76132;BME280;64877;50.994;13.650;2024-01-16T07:12:50;98661.91;;;1.41;84.02
76132;BME280;64877;50.994;13.650;2024-01-16T07:15:17;98663.16;;;1.34;83.52
76132;BME280;64877;50.994;13.650;2024-01-16T07:17:43;98670.63;;;1.43;83.93
76132;BME280;64877;50.994;13.650;2024-01-16T07:20:10;98677.91;;;1.39;83.37
76132;BME280;64877;50.994;13.650;2024-01-16T07:22:37;98678.22;;;1.35;82.65
76132;BME280;64877;50.994;13.650;2024-01-16T07:25:03;98680.69;;;1.38;81.85
76132;BME280;64877;50.994;13.650;2024-01-16T07:27:28;98694.16;;;1.35;80.68
76132;BME280;64877;50.994;13.650;2024-01-16T07:29:54;98691.91;;;1.43;80.38
76132;BME280;64877;50.994;13.650;2024-01-16T07:32:19;98688.06;;;1.33;80.76
76132;BME280;64877;50.994;13.650;2024-01-16T07:34:44;98702.81;;;1.38;80.41
76132;BME280;64877;50.994;13.650;2024-01-16T07:37:10;98706.16;;;1.42;79.86
76132;BME280;64877;50.994;13.650;2024-01-16T07:39:35;98710.38;;;1.46;80.00
76132;BME280;64877;50.994;13.650;2024-01-16T07:42:01;98713.13;;;1.44;79.46
76132;BME280;64877;50.994;13.650;2024-01-16T07:44:26;98712.34;;;1.42;78.78
76132;BME280;64877;50.994;13.650;2024-01-16T07:46:52;98716.66;;;1.45;78.60
76132;BME280;64877;50.994;13.650;2024-01-16T07:49:18;98726.50;;;1.43;77.36
76132;BME280;64877;50.994;13.650;2024-01-16T07:51:43;98730.97;;;1.42;77.27
76132;BME280;64877;50.994;13.650;2024-01-16T07:54:09;98733.97;;;1.52;78.05
76132;BME280;64877;50.994;13.650;2024-01-16T07:56:36;98736.78;;;1.49;77.31
76132;BME280;64877;50.994;13.650;2024-01-16T07:59:02;98729.00;;;1.46;77.04
76132;BME280;64877;50.994;13.650;2024-01-16T08:01:30;98733.28;;;1.64;76.78
76132;BME280;64877;50.994;13.650;2024-01-16T08:03:56;98736.81;;;1.65;77.28
76132;BME280;64877;50.994;13.650;2024-01-16T08:06:22;98749.16;;;1.50;77.00
76132;BME280;64877;50.994;13.650;2024-01-16T08:08:48;98752.84;;;1.63;77.67
76132;BME280;64877;50.994;13.650;2024-01-16T08:11:14;98751.47;;;1.56;77.09
76132;BME280;64877;50.994;13.650;2024-01-16T08:13:40;98754.59;;;1.64;76.39
76132;BME280;64877;50.994;13.650;2024-01-16T08:16:06;98769.00;;;1.60;76.23
76132;BME280;64877;50.994;13.650;2024-01-16T08:18:32;98769.25;;;1.55;76.94
76132;BME280;64877;50.994;13.650;2024-01-16T08:20:57;98766.59;;;1.71;76.68
76132;BME280;64877;50.994;13.650;2024-01-16T08:23:24;98765.03;;;1.67;77.12
76132;BME280;64877;50.994;13.650;2024-01-16T08:25:49;98766.94;;;1.65;76.80
76132;BME280;64877;50.994;13.650;2024-01-16T08:28:19;98761.16;;;1.73;77.09
76132;BME280;64877;50.994;13.650;2024-01-16T08:30:45;98766.84;;;1.67;76.74
76132;BME280;64877;50.994;13.650;2024-01-16T08:33:11;98767.25;;;1.59;76.64
76132;BME280;64877;50.994;13.650;2024-01-16T08:35:37;98758.66;;;1.54;76.54
76132;BME280;64877;50.994;13.650;2024-01-16T08:38:03;98765.38;;;1.61;76.60
76132;BME280;64877;50.994;13.650;2024-01-16T08:40:28;98768.41;;;1.55;77.10
76132;BME280;64877;50.994;13.650;2024-01-16T08:42:54;98768.44;;;1.53;76.65
76132;BME280;64877;50.994;13.650;2024-01-16T08:45:22;98767.53;;;1.70;76.63
76132;BME280;64877;50.994;13.650;2024-01-16T08:47:48;98762.13;;;1.72;76.30
76132;BME280;64877;50.994;13.650;2024-01-16T08:50:15;98770.09;;;1.88;76.09
76132;BME280;64877;50.994;13.650;2024-01-16T08:52:40;98769.75;;;1.94;75.67
76132;BME280;64877;50.994;13.650;2024-01-16T08:55:06;98770.88;;;1.90;75.52
76132;BME280;64877;50.994;13.650;2024-01-16T08:57:31;98778.28;;;1.85;74.89
76132;BME280;64877;50.994;13.650;2024-01-16T08:59:57;98784.06;;;2.07;74.75
76132;BME280;64877;50.994;13.650;2024-01-16T09:02:23;98789.31;;;2.08;74.83
76132;BME280;64877;50.994;13.650;2024-01-16T09:04:49;98784.28;;;2.04;74.77
76132;BME280;64877;50.994;13.650;2024-01-16T09:07:18;98791.47;;;2.02;73.82
76132;BME280;64877;50.994;13.650;2024-01-16T09:09:44;98791.31;;;2.05;74.02
76132;BME280;64877;50.994;13.650;2024-01-16T09:12:09;98793.19;;;2.03;74.18
76132;BME280;64877;50.994;13.650;2024-01-16T09:14:35;98793.44;;;1.98;74.04
76132;BME280;64877;50.994;13.650;2024-01-16T09:17:00;98789.59;;;1.88;74.55
76132;BME280;64877;50.994;13.650;2024-01-16T09:19:26;98795.59;;;1.92;74.87
76132;BME280;64877;50.994;13.650;2024-01-16T09:21:51;98799.13;;;1.76;74.97
76132;BME280;64877;50.994;13.650;2024-01-16T09:24:17;98804.53;;;1.91;76.11
76132;BME280;64877;50.994;13.650;2024-01-16T09:26:44;98801.78;;;1.92;74.62
76132;BME280;64877;50.994;13.650;2024-01-16T09:29:09;98813.81;;;2.15;74.17
76132;BME280;64877;50.994;13.650;2024-01-16T09:31:35;98806.94;;;2.11;74.04
76132;BME280;64877;50.994;13.650;2024-01-16T09:34:04;98810.19;;;2.16;73.34
76132;BME280;64877;50.994;13.650;2024-01-16T09:36:30;98802.22;;;2.46;72.54
76132;BME280;64877;50.994;13.650;2024-01-16T09:38:55;98813.69;;;2.32;72.26
76132;BME280;64877;50.994;13.650;2024-01-16T09:41:21;98808.94;;;2.38;73.16
76132;BME280;64877;50.994;13.650;2024-01-16T09:43:47;98804.72;;;2.33;72.23
76132;BME280;64877;50.994;13.650;2024-01-16T09:46:15;98810.31;;;2.45;72.28
76132;BME280;64877;50.994;13.650;2024-01-16T09:48:41;98815.91;;;2.70;72.19
76132;BME280;64877;50.994;13.650;2024-01-16T09:51:10;98806.47;;;2.65;71.31
76132;BME280;64877;50.994;13.650;2024-01-16T09:53:41;98819.56;;;2.53;71.33
76132;BME280;64877;50.994;13.650;2024-01-16T09:56:15;98805.38;;;2.53;71.41
76132;BME280;64877;50.994;13.650;2024-01-16T09:58:43;98806.56;;;2.63;70.44
76132;BME280;64877;50.994;13.650;2024-01-16T10:01:10;98807.50;;;2.62;70.58
76132;BME280;64877;50.994;13.650;2024-01-16T10:03:37;98801.22;;;2.63;70.28
76132;BME280;64877;50.994;13.650;2024-01-16T10:06:06;98814.81;;;2.58;70.22
76132;BME280;64877;50.994;13.650;2024-01-16T10:08:39;98802.53;;;2.56;68.52
76132;BME280;64877;50.994;13.650;2024-01-16T10:11:05;98794.75;;;2.67;68.88
76132;BME280;64877;50.994;13.650;2024-01-16T10:13:32;98805.06;;;2.73;69.07
76132;BME280;64877;50.994;13.650;2024-01-16T10:15:59;98805.75;;;2.77;68.72
76132;BME280;64877;50.994;13.650;2024-01-16T10:18:28;98800.84;;;2.99;67.82
76132;BME280;64877;50.994;13.650;2024-01-16T10:20:58;98808.41;;;2.77;67.01
76132;BME280;64877;50.994;13.650;2024-01-16T10:23:33;98815.72;;;2.73;67.08
76132;BME280;64877;50.994;13.650;2024-01-16T10:26:08;98813.91;;;3.04;66.38
76132;BME280;64877;50.994;13.650;2024-01-16T10:28:39;98828.69;;;3.24;67.15
76132;BME280;64877;50.994;13.650;2024-01-16T10:31:08;98817.91;;;3.11;64.97
76132;BME280;64877;50.994;13.650;2024-01-16T10:33:36;98829.91;;;3.04;65.32
76132;BME280;64877;50.994;13.650;2024-01-16T10:36:13;98813.25;;;3.29;64.64
76132;BME280;64877;50.994;13.650;2024-01-16T10:38:40;98817.91;;;3.11;64.16
76132;BME280;64877;50.994;13.650;2024-01-16T10:41:11;98802.88;;;3.39;63.98
76132;BME280;64877;50.994;13.650;2024-01-16T10:43:38;98816.56;;;3.18;63.54
76132;BME280;64877;50.994;13.650;2024-01-16T10:46:15;98823.25;;;3.25;63.71
76132;BME280;64877;50.994;13.650;2024-01-16T10:48:43;98830.69;;;3.20;63.96
76132;BME280;64877;50.994;13.650;2024-01-16T10:51:11;98823.59;;;2.91;64.82
76132;BME280;64877;50.994;13.650;2024-01-16T10:53:42;98816.72;;;2.87;65.32
76132;BME280;64877;50.994;13.650;2024-01-16T10:56:12;98826.97;;;2.78;66.08
76132;BME280;64877;50.994;13.650;2024-01-16T10:58:43;98818.00;;;2.65;66.64
76132;BME280;64877;50.994;13.650;2024-01-16T11:01:15;98810.50;;;2.72;67.35
76132;BME280;64877;50.994;13.650;2024-01-16T11:03:48;98810.50;;;2.72;66.30
76132;BME280;64877;50.994;13.650;2024-01-16T11:06:20;98812.28;;;2.71;66.27
76132;BME280;64877;50.994;13.650;2024-01-16T11:08:49;98808.19;;;2.66;67.14
76132;BME280;64877;50.994;13.650;2024-01-16T11:11:15;98809.25;;;2.77;67.33
76132;BME280;64877;50.994;13.650;2024-01-16T11:13:42;98811.75;;;2.80;66.46
76132;BME280;64877;50.994;13.650;2024-01-16T11:16:12;98804.75;;;2.94;66.48
76132;BME280;64877;50.994;13.650;2024-01-16T11:18:39;98817.69;;;3.00;66.48
76132;BME280;64877;50.994;13.650;2024-01-16T11:21:15;98813.34;;;2.99;65.35
76132;BME280;64877;50.994;13.650;2024-01-16T11:23:42;98810.97;;;2.78;65.48
76132;BME280;64877;50.994;13.650;2024-01-16T11:26:33;98810.66;;;3.13;64.91
76132;BME280;64877;50.994;13.650;2024-01-16T11:31:57;98805.06;;;2.73;65.75
76132;BME280;64877;50.994;13.650;2024-01-16T11:37:11;98811.44;;;2.71;65.99
76132;BME280;64877;50.994;13.650;2024-01-16T11:39:37;98807.50;;;2.62;65.75
76132;BME280;64877;50.994;13.650;2024-01-16T11:42:03;98799.06;;;2.70;66.21
76132;BME280;64877;50.994;13.650;2024-01-16T11:44:45;98801.47;;;2.74;65.20
76132;BME280;64877;50.994;13.650;2024-01-16T11:49:42;98796.56;;;2.67;66.90
76132;BME280;64877;50.994;13.650;2024-01-16T11:52:08;98798.44;;;2.80;66.20
76132;BME280;64877;50.994;13.650;2024-01-16T11:54:38;98802.59;;;2.70;65.97
76132;BME280;64877;50.994;13.650;2024-01-16T11:57:35;98804.88;;;2.76;65.85
76132;BME280;64877;50.994;13.650;2024-01-16T12:00:05;98798.94;;;3.01;64.81
76132;BME280;64877;50.994;13.650;2024-01-16T12:02:48;98801.88;;;2.97;64.26
76132;BME280;64877;50.994;13.650;2024-01-16T12:05:15;98800.34;;;2.93;65.08
76132;BME280;64877;50.994;13.650;2024-01-16T12:07:48;98794.81;;;2.81;65.23
76132;BME280;64877;50.994;13.650;2024-01-16T12:10:22;98789.06;;;2.73;65.47
76132;BME280;64877;50.994;13.650;2024-01-16T12:12:50;98798.59;;;2.77;65.79
76132;BME280;64877;50.994;13.650;2024-01-16T12:15:20;98800.03;;;2.83;65.60
76132;BME280;64877;50.994;13.650;2024-01-16T12:18:01;98795.19;;;2.75;65.23
76132;BME280;64877;50.994;13.650;2024-01-16T12:20:33;98789.75;;;2.77;65.41
76132;BME280;64877;50.994;13.650;2024-01-16T12:23:01;98801.94;;;2.81;65.27
76132;BME280;64877;50.994;13.650;2024-01-16T12:25:28;98804.72;;;2.79;64.64
76132;BME280;64877;50.994;13.650;2024-01-16T12:27:59;98801.31;;;2.62;65.48
76132;BME280;64877;50.994;13.650;2024-01-16T12:30:29;98801.81;;;2.68;65.76
76132;BME280;64877;50.994;13.650;2024-01-16T12:35:28;98798.22;;;2.69;66.10
76132;BME280;64877;50.994;13.650;2024-01-16T12:37:58;98800.09;;;2.67;65.85
76132;BME280;64877;50.994;13.650;2024-01-16T12:40:25;98804.72;;;2.79;66.24
76132;BME280;64877;50.994;13.650;2024-01-16T12:42:51;98806.25;;;2.83;66.68
76132;BME280;64877;50.994;13.650;2024-01-16T12:45:17;98793.09;;;2.80;66.07
76132;BME280;64877;50.994;13.650;2024-01-16T12:47:51;98791.19;;;2.82;66.07
76132;BME280;64877;50.994;13.650;2024-01-16T12:50:22;98786.81;;;2.81;65.95
76132;BME280;64877;50.994;13.650;2024-01-16T12:53:11;98786.63;;;2.84;65.26
76132;BME280;64877;50.994;13.650;2024-01-16T12:55:39;98783.47;;;2.78;66.33
76132;BME280;64877;50.994;13.650;2024-01-16T12:58:22;98778.09;;;2.94;64.68
76132;BME280;64877;50.994;13.650;2024-01-16T13:00:54;98776.44;;;2.91;65.53
76132;BME280;64877;50.994;13.650;2024-01-16T13:03:26;98777.38;;;2.76;65.00
76132;BME280;64877;50.994;13.650;2024-01-16T13:05:56;98782.63;;;2.92;64.53
76132;BME280;64877;50.994;13.650;2024-01-16T13:08:23;98780.53;;;2.97;64.42
76132;BME280;64877;50.994;13.650;2024-01-16T13:11:07;98780.94;;;2.91;64.97